createdAt,value
2022-08-23T00:02:25.247Z,101593.72
2022-08-23T00:04:56.458Z,101595.41
2022-08-23T00:07:38.499Z,101590.13
2022-08-23T00:10:06.474Z,101594.47
2022-08-23T00:12:33.130Z,101599.13
2022-08-23T00:14:59.650Z,101598.50
2022-08-23T00:17:33.392Z,101597.97
2022-08-23T00:20:02.451Z,101594.56
2022-08-23T00:22:28.964Z,101597.31
2022-08-23T00:24:55.612Z,101592.25
2022-08-23T00:27:22.283Z,101602.88
2022-08-23T00:29:52.081Z,101592.97
2022-08-23T00:32:23.077Z,101602.06
2022-08-23T00:34:50.657Z,101595.72
2022-08-23T00:37:18.262Z,101596.94
2022-08-23T00:39:47.645Z,101598.03
2022-08-23T00:42:47.093Z,101591.13
2022-08-23T00:45:36.306Z,101596.31
2022-08-23T00:48:05.295Z,101585.09
2022-08-23T00:50:50.707Z,101590.28
2022-08-23T00:53:42.158Z,101595.81
2022-08-23T00:56:12.333Z,101594.19
2022-08-23T00:58:39.541Z,101601.06
2022-08-23T01:01:07.351Z,101598.19
2022-08-23T01:03:38.998Z,101596.66
2022-08-23T01:06:40.214Z,101599.53
2022-08-23T01:09:12.466Z,101596.19
2022-08-23T01:12:00.839Z,101596.19
2022-08-23T01:14:35.880Z,101600.44
2022-08-23T01:17:12.783Z,101603.72
2022-08-23T01:19:46.677Z,101590.72
2022-08-23T01:22:24.982Z,101596.78
2022-08-23T01:25:08.191Z,101591.50
2022-08-23T01:27:36.598Z,101591.50
2022-08-23T01:30:06.645Z,101591.34
2022-08-23T01:32:40.392Z,101589.66
2022-08-23T01:35:07.431Z,101588.13
2022-08-23T01:37:34.401Z,101596.94
2022-08-23T01:40:00.918Z,101600.31
2022-08-23T01:42:27.661Z,101600.16
2022-08-23T01:44:54.308Z,101600.66
2022-08-23T01:47:22.979Z,101600.03
2022-08-23T01:49:49.459Z,101595.84
2022-08-23T01:52:16.045Z,101590.50
2022-08-23T01:54:43.394Z,101596.47
2022-08-23T01:57:11.114Z,101597.66
2022-08-23T01:59:38.568Z,101592.34
2022-08-23T02:02:05.291Z,101588.97
2022-08-23T02:04:31.944Z,101589.69
2022-08-23T02:06:58.422Z,101595.69
2022-08-23T02:09:25.548Z,101602.81
2022-08-23T02:11:52.329Z,101595.13
2022-08-23T02:14:20.834Z,101594.44
2022-08-23T02:17:02.854Z,101595.56
2022-08-23T02:19:31.833Z,101597.25
2022-08-23T02:21:58.461Z,101592.00
2022-08-23T02:24:26.198Z,101584.50
2022-08-23T02:26:57.115Z,101589.00
2022-08-23T02:29:25.194Z,101594.50
2022-08-23T02:31:52.609Z,101589.19
2022-08-23T02:34:20.137Z,101582.41
2022-08-23T02:36:47.627Z,101582.41
2022-08-23T02:39:15.661Z,101587.72
2022-08-23T02:41:42.898Z,101589.75
2022-08-23T02:44:11.184Z,101587.06
2022-08-23T02:46:38.555Z,101586.19
2022-08-23T02:49:05.716Z,101594.84
2022-08-23T02:51:32.424Z,101596.75
2022-08-23T02:53:59.062Z,101599.66
2022-08-23T02:56:25.791Z,101597.16
2022-08-23T02:58:54.680Z,101602.31
2022-08-23T03:01:28.657Z,101602.31
2022-08-23T03:03:56.592Z,101603.88
2022-08-23T03:06:25.782Z,101601.28
2022-08-23T03:08:54.355Z,101599.53
2022-08-23T03:11:22.434Z,101611.31
2022-08-23T03:13:49.682Z,101600.75
2022-08-23T03:16:17.173Z,101606.06
2022-08-23T03:18:43.990Z,101604.28
2022-08-23T03:21:11.240Z,101617.31
2022-08-23T03:23:39.392Z,101620.88
2022-08-23T03:26:08.478Z,101627.97
2022-08-23T03:28:37.320Z,101632.19
2022-08-23T03:31:04.488Z,101628.69
2022-08-23T03:33:31.018Z,101631.78
2022-08-23T03:36:02.401Z,101627.13
2022-08-23T03:38:29.033Z,101631.00
2022-08-23T03:40:55.668Z,101629.91
2022-08-23T03:43:22.557Z,101635.44
2022-08-23T03:45:49.382Z,101639.38
2022-08-23T03:48:16.662Z,101632.28
2022-08-23T03:50:44.128Z,101638.06
2022-08-23T03:53:12.255Z,101633.69
2022-08-23T03:55:42.499Z,101637.63
2022-08-23T03:58:09.799Z,101635.78
2022-08-23T04:00:36.367Z,101638.94
2022-08-23T04:03:03.345Z,101633.00
2022-08-23T04:05:29.906Z,101640.69
2022-08-23T04:07:56.430Z,101641.44
2022-08-23T04:10:23.325Z,101639.84
2022-08-23T04:12:50.015Z,101636.25
2022-08-23T04:15:16.710Z,101643.13
2022-08-23T04:17:43.359Z,101642.97
2022-08-23T04:20:10.052Z,101639.47
2022-08-23T04:22:36.669Z,101647.31
2022-08-23T04:25:04.725Z,101644.53
2022-08-23T04:27:42.820Z,101642.50
2022-08-23T04:30:09.717Z,101652.63
2022-08-23T04:32:41.003Z,101650.81
2022-08-23T04:35:10.083Z,101650.81
2022-08-23T04:37:36.740Z,101650.94
2022-08-23T04:40:23.469Z,101647.44
2022-08-23T04:42:49.999Z,101647.59
2022-08-23T04:45:16.573Z,101647.28
2022-08-23T04:47:44.840Z,101646.31
2022-08-23T04:50:11.523Z,101640.22
2022-08-23T04:52:38.077Z,101646.53
2022-08-23T04:55:05.115Z,101656.00
2022-08-23T04:57:31.829Z,101654.94
2022-08-23T04:59:58.336Z,101658.25
2022-08-23T05:02:24.842Z,101654.94
2022-08-23T05:04:51.356Z,101667.97
2022-08-23T05:07:17.827Z,101663.53
2022-08-23T05:09:44.425Z,101667.00
2022-08-23T05:12:11.359Z,101660.88
2022-08-23T05:14:38.152Z,101661.53
2022-08-23T05:17:24.300Z,101660.41
2022-08-23T05:19:50.784Z,101663.91
2022-08-23T05:22:17.457Z,101671.00
2022-08-23T05:24:44.057Z,101674.41
2022-08-23T05:27:13.681Z,101677.69
2022-08-23T05:29:40.618Z,101677.50
2022-08-23T05:32:07.226Z,101682.31
2022-08-23T05:34:33.920Z,101684.06
2022-08-23T05:37:00.672Z,101690.78
2022-08-23T05:39:36.730Z,101686.91
2022-08-23T05:42:05.843Z,101684.69
2022-08-23T05:44:36.516Z,101685.38
2022-08-23T05:47:10.677Z,101678.44
2022-08-23T05:49:38.967Z,101677.44
2022-08-23T05:52:07.847Z,101685.56
2022-08-23T05:54:35.632Z,101682.66
2022-08-23T05:57:05.587Z,101678.84
2022-08-23T05:59:32.079Z,101683.81
2022-08-23T06:01:58.857Z,101692.84
2022-08-23T06:04:25.464Z,101691.44
2022-08-23T06:06:52.206Z,101686.00
2022-08-23T06:09:19.501Z,101688.34
2022-08-23T06:11:48.023Z,101691.38
2022-08-23T06:14:15.436Z,101685.66
2022-08-23T06:16:46.616Z,101690.38
2022-08-23T06:19:14.592Z,101695.06
2022-08-23T06:21:42.537Z,101685.94
2022-08-23T06:24:09.979Z,101693.31
2022-08-23T06:26:45.400Z,101694.59
2022-08-23T06:29:17.459Z,101695.75
2022-08-23T06:31:49.027Z,101699.78
2022-08-23T06:34:18.477Z,101691.53
2022-08-23T06:37:32.987Z,101692.00
2022-08-23T06:40:02.380Z,101690.25
2022-08-23T06:43:14.103Z,101688.41
2022-08-23T06:46:00.989Z,101691.50
2022-08-23T06:49:15.402Z,101691.91
2022-08-23T06:52:05.378Z,101692.47
2022-08-23T06:57:23.447Z,101700.28
2022-08-23T06:59:50.184Z,101705.16
2022-08-23T07:02:17.228Z,101700.44
2022-08-23T07:04:43.979Z,101697.47
2022-08-23T07:07:12.135Z,101700.53
2022-08-23T07:09:40.158Z,101703.09
2022-08-23T07:12:06.984Z,101704.38
2022-08-23T07:14:33.980Z,101700.00
2022-08-23T07:17:03.449Z,101699.00
2022-08-23T07:19:33.056Z,101705.53
2022-08-23T07:22:00.659Z,101699.91
2022-08-23T07:24:32.316Z,101703.81
2022-08-23T07:27:01.397Z,101711.47
2022-08-23T07:29:28.618Z,101704.84
2022-08-23T07:31:56.209Z,101710.28
2022-08-23T07:34:23.488Z,101712.13
2022-08-23T07:36:51.380Z,101711.78
2022-08-23T07:39:19.001Z,101713.63
2022-08-23T07:41:45.610Z,101720.41
2022-08-23T07:44:15.087Z,101711.94
2022-08-23T07:46:47.343Z,101713.25
2022-08-23T07:49:15.234Z,101728.22
2022-08-23T07:51:46.395Z,101726.78
2022-08-23T07:54:12.933Z,101728.63
2022-08-23T07:56:40.653Z,101728.03
2022-08-23T08:10:13.907Z,101738.75
2022-08-23T08:19:29.740Z,101745.28
2022-08-23T08:22:13.355Z,101748.06
2022-08-23T08:32:30.917Z,101737.00
2022-08-23T08:34:57.355Z,101745.34
2022-08-23T08:37:24.482Z,101748.94
2022-08-23T08:39:52.046Z,101748.66
2022-08-23T08:42:39.132Z,101745.34
2022-08-23T08:45:10.695Z,101744.09
2022-08-23T08:47:49.651Z,101744.19
2022-08-23T08:50:26.478Z,101744.56
2022-08-23T08:53:00.857Z,101745.94
2022-08-23T08:55:36.673Z,101748.06
2022-08-23T09:10:10.659Z,101756.09
2022-08-23T09:22:43.130Z,101750.91
2022-08-23T09:25:11.362Z,101757.25
2022-08-23T09:27:40.057Z,101752.66
2022-08-23T09:30:07.648Z,101754.47
2022-08-23T09:32:39.546Z,101756.06
2022-08-23T09:35:25.874Z,101755.81
2022-08-23T09:38:03.684Z,101755.44
2022-08-23T09:40:38.807Z,101754.81
2022-08-23T09:43:26.275Z,101758.59
2022-08-23T09:46:00.042Z,101757.44
2022-08-23T09:48:32.885Z,101760.28
2022-08-23T09:51:16.752Z,101745.44
2022-08-23T09:53:50.036Z,101748.97
2022-08-23T09:56:45.314Z,101750.00
2022-08-23T09:59:45.953Z,101740.97
2022-08-23T10:02:21.986Z,101741.09
2022-08-23T10:05:29.241Z,101742.09
2022-08-23T10:08:03.615Z,101731.59
2022-08-23T10:10:51.068Z,101734.50
2022-08-23T10:13:28.122Z,101733.84
2022-08-23T10:16:34.252Z,101736.59
2022-08-23T10:19:18.725Z,101736.06
2022-08-23T10:22:13.013Z,101736.94
2022-08-23T10:25:04.192Z,101736.91
2022-08-23T10:28:24.630Z,101738.69
2022-08-23T10:30:56.307Z,101729.13
2022-08-23T10:33:48.289Z,101729.63
2022-08-23T10:36:46.219Z,101727.00
2022-08-23T10:39:47.083Z,101734.50
2022-08-23T10:42:41.304Z,101728.59
2022-08-23T10:45:25.428Z,101728.25
2022-08-23T10:48:09.818Z,101731.69
2022-08-23T10:50:55.690Z,101722.69
2022-08-23T10:53:34.632Z,101717.22
2022-08-23T10:56:41.514Z,101718.66
2022-08-23T10:59:21.074Z,101708.28
2022-08-23T11:01:58.447Z,101707.75
2022-08-23T11:04:36.101Z,101710.75
2022-08-23T11:07:29.615Z,101706.63
2022-08-23T11:10:30.598Z,101717.06
2022-08-23T11:13:07.055Z,101714.16
2022-08-23T11:16:12.151Z,101717.22
2022-08-23T11:18:47.350Z,101719.75
2022-08-23T11:21:33.740Z,101724.41
2022-08-23T11:24:04.972Z,101724.84
2022-08-23T11:26:40.642Z,101721.50
2022-08-23T11:29:10.208Z,101722.00
2022-08-23T11:31:42.011Z,101714.91
2022-08-23T11:34:29.745Z,101723.31
2022-08-23T11:37:23.460Z,101730.88
2022-08-23T11:40:00.218Z,101731.13
2022-08-23T11:42:50.223Z,101724.47
2022-08-23T11:45:30.179Z,101724.31
2022-08-23T11:48:35.699Z,101724.16
2022-08-23T11:51:14.941Z,101722.50
2022-08-23T11:53:49.459Z,101736.69
2022-08-23T11:56:46.423Z,101733.28
2022-08-23T11:59:41.829Z,101738.94
2022-08-23T12:02:48.187Z,101728.31
2022-08-23T12:05:44.510Z,101726.91
2022-08-23T12:08:18.064Z,101716.09
2022-08-23T12:10:45.739Z,101724.25
2022-08-23T12:13:23.268Z,101726.59
2022-08-23T12:16:17.775Z,101735.50
2022-08-23T12:18:48.388Z,101722.81
2022-08-23T12:21:21.942Z,101729.03
2022-08-23T12:23:53.342Z,101720.06
2022-08-23T12:26:28.830Z,101712.16
2022-08-23T12:29:41.315Z,101728.09
2022-08-23T12:32:48.048Z,101722.56
2022-08-23T12:35:40.920Z,101732.44
2022-08-23T12:38:34.436Z,101730.06
2022-08-23T12:41:34.704Z,101735.03
2022-08-23T12:44:10.311Z,101727.75
2022-08-23T12:46:51.914Z,101725.63
2022-08-23T12:49:36.980Z,101732.75
2022-08-23T12:52:11.033Z,101731.66
2022-08-23T12:54:55.327Z,101720.78
2022-08-23T12:57:36.731Z,101718.00
2022-08-23T13:00:17.107Z,101719.66
2022-08-23T13:03:13.405Z,101725.09
2022-08-23T13:05:48.431Z,101731.09
2022-08-23T13:08:34.131Z,101725.47
2022-08-23T13:11:07.786Z,101725.47
2022-08-23T13:13:42.807Z,101721.28
2022-08-23T13:16:32.340Z,101715.69
2022-08-23T13:19:22.704Z,101717.16
2022-08-23T13:22:22.544Z,101718.91
2022-08-23T13:27:58.220Z,101712.44
2022-08-23T13:30:30.144Z,101710.81
2022-08-23T13:33:09.543Z,101712.22
2022-08-23T13:35:58.643Z,101711.38
2022-08-23T13:38:31.750Z,101714.19
2022-08-23T13:41:12.151Z,101709.56
2022-08-23T13:43:47.360Z,101708.72
2022-08-23T13:46:31.565Z,101711.63
2022-08-23T13:49:07.194Z,101706.88
2022-08-23T13:51:38.828Z,101699.44
2022-08-23T13:54:13.594Z,101702.72
2022-08-23T13:56:53.401Z,101702.44
2022-08-23T13:59:31.573Z,101700.59
2022-08-23T14:02:07.527Z,101704.91
2022-08-23T14:04:35.930Z,101694.03
2022-08-23T14:07:04.342Z,101695.75
2022-08-23T14:09:35.800Z,101697.41
2022-08-23T14:12:18.030Z,101692.31
2022-08-23T14:14:57.965Z,101693.69
2022-08-23T14:17:27.861Z,101683.97
2022-08-23T14:23:11.511Z,101692.94
2022-08-23T14:25:49.784Z,101690.94
2022-08-23T14:28:27.327Z,101690.69
2022-08-23T14:30:58.580Z,101684.66
2022-08-23T14:33:39.066Z,101688.53
2022-08-23T14:36:15.071Z,101689.75
2022-08-23T14:38:58.648Z,101689.00
2022-08-23T14:41:31.255Z,101686.09
2022-08-23T14:43:58.845Z,101686.34
2022-08-23T14:46:36.207Z,101679.66
2022-08-23T14:49:06.593Z,101674.00
2022-08-23T14:51:43.180Z,101681.63
2022-08-23T14:54:28.382Z,101681.63
2022-08-23T14:56:55.589Z,101680.31
2022-08-23T14:59:29.265Z,101681.25
2022-08-23T15:02:01.421Z,101682.41
2022-08-23T15:04:35.147Z,101680.91
2022-08-23T15:07:18.047Z,101679.31
2022-08-23T15:09:59.418Z,101686.81
2022-08-23T15:15:25.712Z,101680.44
2022-08-23T15:18:12.317Z,101688.03
2022-08-23T15:20:47.440Z,101692.03
2022-08-23T15:23:16.204Z,101698.47
2022-08-23T15:25:44.601Z,101699.13
2022-08-23T15:28:15.945Z,101687.88
2022-08-23T15:30:45.306Z,101683.66
2022-08-23T15:33:27.131Z,101682.53
2022-08-23T15:35:59.623Z,101693.47
2022-08-23T15:38:28.490Z,101689.50
2022-08-23T15:41:01.895Z,101686.44
2022-08-23T15:43:35.001Z,101689.22
2022-08-23T15:46:16.379Z,101694.81
2022-08-23T15:48:58.672Z,101695.31
2022-08-23T15:51:27.233Z,101699.72
2022-08-23T15:54:01.455Z,101699.06
2022-08-23T15:56:56.792Z,101700.34
2022-08-23T15:59:24.609Z,101700.47
2022-08-23T16:02:00.798Z,101697.84
2022-08-23T16:04:32.578Z,101694.53
2022-08-23T16:07:10.241Z,101695.72
2022-08-23T16:09:41.490Z,101686.00
2022-08-23T16:12:10.212Z,101697.25
2022-08-23T16:14:44.978Z,101696.03
2022-08-23T16:17:22.182Z,101698.81
2022-08-23T16:19:54.776Z,101697.03
2022-08-23T16:22:24.696Z,101697.91
2022-08-23T16:24:55.654Z,101692.06
2022-08-23T16:27:32.691Z,101700.00
2022-08-23T16:30:00.292Z,101688.81
2022-08-23T16:32:31.656Z,101692.00
2022-08-23T16:35:07.140Z,101693.06
2022-08-23T16:37:36.805Z,101685.88
2022-08-23T16:40:09.554Z,101692.06
2022-08-23T16:42:49.991Z,101691.69
2022-08-23T16:45:25.877Z,101682.84
2022-08-23T16:48:00.217Z,101690.06
2022-08-23T16:50:37.901Z,101684.25
2022-08-23T16:53:12.256Z,101690.06
2022-08-23T16:55:44.002Z,101695.53
2022-08-23T16:58:11.905Z,101687.19
2022-08-23T17:00:39.772Z,101688.94
2022-08-23T17:03:15.491Z,101688.94
2022-08-23T17:05:55.360Z,101699.19
2022-08-23T17:08:23.470Z,101700.59
2022-08-23T17:11:01.135Z,101687.75
2022-08-23T17:13:30.882Z,101699.97
2022-08-23T17:16:05.127Z,101707.84
2022-08-23T17:18:39.232Z,101703.50
2022-08-23T17:21:08.162Z,101706.22
2022-08-23T17:23:41.069Z,101702.59
2022-08-23T17:26:11.665Z,101707.06
2022-08-23T17:28:46.271Z,101710.69
2022-08-23T17:31:15.018Z,101707.81
2022-08-23T17:33:43.124Z,101708.28
2022-08-23T17:36:42.587Z,101710.28
2022-08-23T17:39:19.448Z,101712.44
2022-08-23T17:41:47.351Z,101721.81
2022-08-23T17:44:17.942Z,101725.72
2022-08-23T17:46:47.946Z,101724.44
2022-08-23T17:49:16.111Z,101727.72
2022-08-23T17:51:43.869Z,101729.28
2022-08-23T17:54:16.105Z,101730.00
2022-08-23T17:56:50.241Z,101732.66
2022-08-23T17:59:22.251Z,101743.56
2022-08-23T18:01:50.230Z,101735.28
2022-08-23T18:04:20.924Z,101740.59
2022-08-23T18:06:49.620Z,101736.41
2022-08-23T18:09:21.992Z,101744.34
2022-08-23T18:11:49.243Z,101753.97
2022-08-23T18:14:18.762Z,101761.53
2022-08-23T18:16:47.262Z,101761.56
2022-08-23T18:19:15.833Z,101764.94
2022-08-23T18:21:44.233Z,101772.63
2022-08-23T18:24:11.410Z,101771.94
2022-08-23T18:26:59.764Z,101774.53
2022-08-23T18:29:26.305Z,101785.41
2022-08-23T18:31:53.563Z,101791.50
2022-08-23T18:34:21.711Z,101792.25
2022-08-23T18:37:01.814Z,101797.97
2022-08-23T18:39:32.475Z,101804.00
2022-08-23T18:42:06.736Z,101801.25
2022-08-23T18:44:33.315Z,101813.25
2022-08-23T18:47:03.773Z,101815.34
2022-08-23T18:49:31.565Z,101820.28
2022-08-23T18:51:57.982Z,101814.66
2022-08-23T18:54:24.957Z,101821.38
2022-08-23T18:57:03.547Z,101821.75
2022-08-23T18:59:30.497Z,101826.78
2022-08-23T19:01:57.142Z,101821.66
2022-08-23T19:04:23.983Z,101828.34
2022-08-23T19:06:53.472Z,101832.41
2022-08-23T19:09:21.081Z,101830.53
2022-08-23T19:11:47.646Z,101837.44
2022-08-23T19:14:14.281Z,101829.56
2022-08-23T19:16:48.366Z,101848.16
2022-08-23T19:19:16.124Z,101844.56
2022-08-23T19:21:42.756Z,101847.53
2022-08-23T19:24:09.356Z,101855.59
2022-08-23T19:26:37.573Z,101853.56
2022-08-23T19:29:08.550Z,101858.34
2022-08-23T19:31:41.754Z,101863.69
2022-08-23T19:34:09.555Z,101865.47
2022-08-23T19:37:00.691Z,101869.53
2022-08-23T19:39:29.023Z,101871.53
2022-08-23T19:41:55.615Z,101868.19
2022-08-23T19:44:22.727Z,101881.28
2022-08-23T19:46:57.407Z,101873.16
2022-08-23T19:49:24.138Z,101882.91
2022-08-23T19:51:50.670Z,101883.16
2022-08-23T19:54:17.302Z,101878.97
2022-08-23T19:57:45.460Z,101887.28
2022-08-23T20:00:19.317Z,101883.56
2022-08-23T20:02:47.143Z,101886.50
2022-08-23T20:05:13.634Z,101883.19
2022-08-23T20:07:40.531Z,101890.31
2022-08-23T20:10:08.685Z,101895.13
2022-08-23T20:12:35.442Z,101897.13
2022-08-23T20:15:02.541Z,101895.66
2022-08-23T20:18:08.857Z,101892.34
2022-08-23T20:20:35.397Z,101897.69
2022-08-23T20:23:20.392Z,101892.78
2022-08-23T20:25:46.934Z,101894.75
2022-08-23T20:28:13.366Z,101906.94
2022-08-23T20:30:40.269Z,101907.19
2022-08-23T20:33:06.810Z,101904.28
2022-08-23T20:35:33.383Z,101902.50
2022-08-23T20:38:03.152Z,101908.91
2022-08-23T20:40:30.016Z,101908.66
2022-08-23T20:42:56.681Z,101905.00
2022-08-23T20:45:23.471Z,101915.16
2022-08-23T20:47:50.118Z,101908.47
2022-08-23T20:50:17.202Z,101912.00
2022-08-23T20:52:44.239Z,101909.09
2022-08-23T20:55:13.758Z,101909.09
2022-08-23T20:58:07.685Z,101905.75
2022-08-23T21:00:34.234Z,101908.25
2022-08-23T21:03:00.946Z,101909.25
2022-08-23T21:05:27.519Z,101902.31
2022-08-23T21:07:55.742Z,101911.22
2022-08-23T21:10:22.628Z,101909.09
2022-08-23T21:12:49.128Z,101915.00
2022-08-23T21:15:15.610Z,101917.19
2022-08-23T21:17:46.746Z,101917.59
2022-08-23T21:20:14.329Z,101927.38
2022-08-23T21:22:41.299Z,101919.88
2022-08-23T21:25:08.319Z,101919.78
2022-08-23T21:27:49.437Z,101920.38
2022-08-23T21:30:16.317Z,101920.66
2022-08-23T21:32:42.765Z,101918.16
2022-08-23T21:35:09.916Z,101917.88
2022-08-23T21:38:09.459Z,101917.31
2022-08-23T21:40:36.129Z,101916.94
2022-08-23T21:43:02.968Z,101907.72
2022-08-23T21:45:29.717Z,101910.63
2022-08-23T21:48:01.381Z,101908.38
2022-08-23T21:50:28.713Z,101912.56
2022-08-23T21:52:56.761Z,101913.69
2022-08-23T21:55:34.437Z,101915.06
2022-08-23T21:58:03.802Z,101904.75
2022-08-23T22:00:30.659Z,101919.09
2022-08-23T22:02:57.623Z,101909.13
2022-08-23T22:05:26.497Z,101912.00
2022-08-23T22:07:53.756Z,101909.47
2022-08-23T22:10:21.818Z,101916.72
2022-08-23T22:12:48.624Z,101911.91
2022-08-23T22:15:16.297Z,101922.56
2022-08-23T22:17:55.548Z,101920.75
2022-08-23T22:20:22.023Z,101924.59
2022-08-23T22:22:50.382Z,101924.31
2022-08-23T22:25:17.439Z,101928.84
2022-08-23T22:27:57.596Z,101926.94
2022-08-23T22:30:24.919Z,101936.94
2022-08-23T22:32:51.465Z,101931.69
2022-08-23T22:35:18.503Z,101940.75
2022-08-23T22:38:10.201Z,101933.38
2022-08-23T22:40:33.987Z,101936.72
2022-08-23T22:43:00.541Z,101935.22
2022-08-23T22:45:30.029Z,101937.84
2022-08-23T22:48:40.340Z,101935.22
2022-08-23T22:51:19.424Z,101928.81
2022-08-23T22:53:50.015Z,101933.94
2022-08-23T23:00:42.270Z,101943.47
2022-08-23T23:03:09.216Z,101939.94
2022-08-23T23:05:37.690Z,101936.91
2022-08-23T23:08:23.250Z,101946.19
2022-08-23T23:10:49.806Z,101943.38
2022-08-23T23:13:16.591Z,101941.75
2022-08-23T23:15:54.726Z,101929.25
2022-08-23T23:18:23.655Z,101941.97
2022-08-23T23:20:50.445Z,101939.28
2022-08-23T23:23:20.682Z,101934.38
2022-08-23T23:25:59.834Z,101928.75
2022-08-23T23:28:27.268Z,101926.16
2022-08-23T23:30:55.635Z,101933.19
2022-08-23T23:33:23.512Z,101922.38
2022-08-23T23:35:59.671Z,101929.25
2022-08-23T23:38:26.185Z,101923.63
2022-08-23T23:40:52.740Z,101923.13
2022-08-23T23:43:19.299Z,101926.03
2022-08-23T23:46:12.046Z,101928.34
2022-08-23T23:48:39.672Z,101931.13
2022-08-23T23:51:08.454Z,101926.25
2022-08-23T23:53:36.691Z,101929.09
2022-08-23T23:56:21.862Z,101928.59
2022-08-23T23:58:50.963Z,101923.22
